sensor_id;sensor_type;location;lat;lon;timestamp;pressure;altitude;pressure_sealevel;temperature;humidity
23176;BME280;19910;42.652;23.332;2024-02-04T00:01:53;94988.09;;;8.75;70.04
23176;BME280;19910;42.652;23.332;2024-02-04T00:04:20;94987.81;;;8.77;70.07
23176;BME280;19910;42.652;23.332;2024-02-04T00:06:49;94986.19;;;8.76;70.41
23176;BME280;19910;42.652;23.332;2024-02-04T00:09:16;94977.44;;;8.70;70.21
23176;BME280;19910;42.652;23.332;2024-02-04T00:11:44;94973.81;;;8.52;70.52
23176;BME280;19910;42.652;23.332;2024-02-04T00:14:12;94980.31;;;8.51;71.05
23176;BME280;19910;42.652;23.332;2024-02-04T00:16:39;94983.00;;;8.51;70.95
23176;BME280;19910;42.652;23.332;2024-02-04T00:19:06;94967.91;;;8.50;71.07
23176;BME280;19910;42.652;23.332;2024-02-04T00:21:34;94984.91;;;8.51;71.09
23176;BME280;19910;42.652;23.332;2024-02-04T00:24:00;94986.31;;;8.48;71.43
23176;BME280;19910;42.652;23.332;2024-02-04T00:26:28;94997.84;;;8.40;71.39
23176;BME280;19910;42.652;23.332;2024-02-04T00:28:55;94982.63;;;8.44;71.27
23176;BME280;19910;42.652;23.332;2024-02-04T00:31:23;94987.53;;;8.42;71.54
23176;BME280;19910;42.652;23.332;2024-02-04T00:33:50;94989.53;;;8.37;71.67
23176;BME280;19910;42.652;23.332;2024-02-04T00:36:18;94973.34;;;8.37;71.54
23176;BME280;19910;42.652;23.332;2024-02-04T00:38:45;94992.34;;;8.45;72.22
23176;BME280;19910;42.652;23.332;2024-02-04T00:41:13;94988.09;;;8.53;71.98
23176;BME280;19910;42.652;23.332;2024-02-04T00:43:40;94981.19;;;8.61;71.61
23176;BME280;19910;42.652;23.332;2024-02-04T00:46:07;94978.50;;;8.61;71.65
23176;BME280;19910;42.652;23.332;2024-02-04T00:48:37;94979.09;;;8.58;71.96
23176;BME280;19910;42.652;23.332;2024-02-04T00:51:06;94960.91;;;8.49;72.15
23176;BME280;19910;42.652;23.332;2024-02-04T00:53:34;94969.50;;;8.51;72.76
23176;BME280;19910;42.652;23.332;2024-02-04T00:56:01;94972.09;;;8.57;73.20
23176;BME280;19910;42.652;23.332;2024-02-04T00:58:30;94963.38;;;8.60;72.86
23176;BME280;19910;42.652;23.332;2024-02-04T01:00:57;94962.91;;;8.58;72.95
23176;BME280;19910;42.652;23.332;2024-02-04T01:03:24;94960.06;;;8.63;73.54
23176;BME280;19910;42.652;23.332;2024-02-04T01:05:52;94970.84;;;8.63;74.00
23176;BME280;19910;42.652;23.332;2024-02-04T01:08:19;94969.16;;;8.67;73.76
23176;BME280;19910;42.652;23.332;2024-02-04T01:10:49;94968.03;;;8.68;73.40
23176;BME280;19910;42.652;23.332;2024-02-04T01:13:17;94971.75;;;8.72;74.11
23176;BME280;19910;42.652;23.332;2024-02-04T01:15:44;94965.44;;;8.63;74.12
23176;BME280;19910;42.652;23.332;2024-02-04T01:18:11;94972.22;;;8.74;74.00
23176;BME280;19910;42.652;23.332;2024-02-04T01:20:38;94972.22;;;8.74;74.49
23176;BME280;19910;42.652;23.332;2024-02-04T01:23:08;94956.38;;;8.81;74.36
23176;BME280;19910;42.652;23.332;2024-02-04T01:25:36;94968.78;;;8.82;74.25
23176;BME280;19910;42.652;23.332;2024-02-04T01:28:03;94977.97;;;8.81;74.66
23176;BME280;19910;42.652;23.332;2024-02-04T01:30:30;94950.38;;;8.84;74.68
23176;BME280;19910;42.652;23.332;2024-02-04T01:32:57;94958.31;;;8.89;74.57
23176;BME280;19910;42.652;23.332;2024-02-04T01:35:24;94949.97;;;8.77;75.01
23176;BME280;19910;42.652;23.332;2024-02-04T01:37:51;94953.78;;;8.76;75.01
23176;BME280;19910;42.652;23.332;2024-02-04T01:40:19;94950.56;;;8.87;74.44
23176;BME280;19910;42.652;23.332;2024-02-04T01:42:46;94953.25;;;8.87;74.71
23176;BME280;19910;42.652;23.332;2024-02-04T01:45:14;94952.91;;;8.89;74.21
23176;BME280;19910;42.652;23.332;2024-02-04T01:47:41;94941.88;;;8.99;74.24
23176;BME280;19910;42.652;23.332;2024-02-04T01:50:09;94937.09;;;8.96;74.27
23176;BME280;19910;42.652;23.332;2024-02-04T01:52:39;94944.81;;;8.89;74.57
23176;BME280;19910;42.652;23.332;2024-02-04T01:55:08;94934.88;;;8.98;74.34
23176;BME280;19910;42.652;23.332;2024-02-04T01:57:39;94929.81;;;9.05;74.01
23176;BME280;19910;42.652;23.332;2024-02-04T02:00:08;94943.19;;;9.10;73.73
23176;BME280;19910;42.652;23.332;2024-02-04T02:02:39;94950.53;;;9.18;73.64
23176;BME280;19910;42.652;23.332;2024-02-04T02:05:06;94935.59;;;9.12;74.10
23176;BME280;19910;42.652;23.332;2024-02-04T02:07:33;94934.97;;;9.15;74.12
23176;BME280;19910;42.652;23.332;2024-02-04T02:10:00;94927.97;;;9.14;73.70
23176;BME280;19910;42.652;23.332;2024-02-04T02:12:30;94926.22;;;9.18;73.58
23176;BME280;19910;42.652;23.332;2024-02-04T02:15:07;94931.31;;;9.20;73.62
23176;BME280;19910;42.652;23.332;2024-02-04T02:17:44;94930.53;;;9.19;73.67
23176;BME280;19910;42.652;23.332;2024-02-04T02:20:21;94923.53;;;9.18;73.91
23176;BME280;19910;42.652;23.332;2024-02-04T02:22:51;94922.28;;;9.24;73.23
23176;BME280;19910;42.652;23.332;2024-02-04T02:25:27;94925.47;;;9.26;73.19
23176;BME280;19910;42.652;23.332;2024-02-04T02:27:54;94932.13;;;9.20;73.44
23176;BME280;19910;42.652;23.332;2024-02-04T02:30:21;94925.72;;;9.16;73.68
23176;BME280;19910;42.652;23.332;2024-02-04T02:32:50;94937.53;;;9.20;73.43
23176;BME280;19910;42.652;23.332;2024-02-04T02:35:17;94921.47;;;9.15;73.62
23176;BME280;19910;42.652;23.332;2024-02-04T02:37:50;94919.88;;;9.14;73.61
23176;BME280;19910;42.652;23.332;2024-02-04T02:40:22;94923.88;;;9.25;73.12
23176;BME280;19910;42.652;23.332;2024-02-04T02:42:52;94919.44;;;9.30;73.28
23176;BME280;19910;42.652;23.332;2024-02-04T02:45:21;94923.53;;;9.18;73.20
23176;BME280;19910;42.652;23.332;2024-02-04T02:47:49;94916.69;;;9.21;73.05
23176;BME280;19910;42.652;23.332;2024-02-04T02:50:18;94920.88;;;9.27;72.80
23176;BME280;19910;42.652;23.332;2024-02-04T02:52:45;94916.72;;;9.30;72.94
23176;BME280;19910;42.652;23.332;2024-02-04T02:55:12;94913.88;;;9.35;72.38
23176;BME280;19910;42.652;23.332;2024-02-04T02:57:39;94910.88;;;9.36;72.68
23176;BME280;19910;42.652;23.332;2024-02-04T03:00:09;94917.25;;;9.40;72.52
23176;BME280;19910;42.652;23.332;2024-02-04T03:02:36;94922.69;;;9.49;72.04
23176;BME280;19910;42.652;23.332;2024-02-04T03:05:03;94907.75;;;9.43;71.85
23176;BME280;19910;42.652;23.332;2024-02-04T03:07:30;94920.78;;;9.41;72.32
23176;BME280;19910;42.652;23.332;2024-02-04T03:09:57;94906.47;;;9.49;71.85
23176;BME280;19910;42.652;23.332;2024-02-04T03:12:24;94900.75;;;9.59;71.61
23176;BME280;19910;42.652;23.332;2024-02-04T03:14:51;94903.81;;;9.66;71.72
23176;BME280;19910;42.652;23.332;2024-02-04T03:17:19;94888.41;;;9.75;71.49
23176;BME280;19910;42.652;23.332;2024-02-04T03:19:47;94901.78;;;9.80;71.52
23176;BME280;19910;42.652;23.332;2024-02-04T03:22:14;94891.59;;;9.77;71.88
23176;BME280;19910;42.652;23.332;2024-02-04T03:24:41;94896.50;;;9.75;72.35
23176;BME280;19910;42.652;23.332;2024-02-04T03:27:08;94888.75;;;9.82;71.96
23176;BME280;19910;42.652;23.332;2024-02-04T03:29:35;94896.69;;;9.87;71.62
23176;BME280;19910;42.652;23.332;2024-02-04T03:32:02;94875.81;;;9.71;71.72
23176;BME280;19910;42.652;23.332;2024-02-04T03:34:30;94888.69;;;9.65;71.96
23176;BME280;19910;42.652;23.332;2024-02-04T03:36:57;94896.34;;;9.72;72.01
23176;BME280;19910;42.652;23.332;2024-02-04T03:39:26;94890.31;;;9.75;72.02
23176;BME280;19910;42.652;23.332;2024-02-04T03:41:54;94875.66;;;9.67;72.41
23176;BME280;19910;42.652;23.332;2024-02-04T03:44:21;94880.44;;;9.70;72.77
23176;BME280;19910;42.652;23.332;2024-02-04T03:46:49;94869.50;;;9.84;71.72
23176;BME280;19910;42.652;23.332;2024-02-04T03:49:16;94863.09;;;9.80;72.15
23176;BME280;19910;42.652;23.332;2024-02-04T03:51:44;94853.41;;;9.79;72.53
23176;BME280;19910;42.652;23.332;2024-02-04T03:54:11;94847.34;;;9.73;72.98
23176;BME280;19910;42.652;23.332;2024-02-04T03:56:39;94869.31;;;9.80;72.78
23176;BME280;19910;42.652;23.332;2024-02-04T03:59:07;94861.97;;;9.72;72.91
23176;BME280;19910;42.652;23.332;2024-02-04T04:01:36;94859.75;;;9.66;73.72
23176;BME280;19910;42.652;23.332;2024-02-04T04:04:04;94880.09;;;9.63;74.15
23176;BME280;19910;42.652;23.332;2024-02-04T04:06:31;94876.28;;;9.64;74.04
23176;BME280;19910;42.652;23.332;2024-02-04T04:08:59;94893.75;;;9.58;74.24
23176;BME280;19910;42.652;23.332;2024-02-04T04:11:26;94904.13;;;9.56;74.39
23176;BME280;19910;42.652;23.332;2024-02-04T04:13:53;94882.47;;;9.56;74.08
23176;BME280;19910;42.652;23.332;2024-02-04T04:16:21;94898.72;;;9.56;74.63
23176;BME280;19910;42.652;23.332;2024-02-04T04:18:48;94885.31;;;9.51;74.72
23176;BME280;19910;42.652;23.332;2024-02-04T04:21:15;94876.72;;;9.57;74.46
23176;BME280;19910;42.652;23.332;2024-02-04T04:23:43;94861.78;;;9.60;74.53
23176;BME280;19910;42.652;23.332;2024-02-04T04:26:12;94854.03;;;9.67;74.65
23176;BME280;19910;42.652;23.332;2024-02-04T04:28:39;94869.63;;;9.70;74.55
23176;BME280;19910;42.652;23.332;2024-02-04T04:31:06;94860.38;;;9.71;74.69
23176;BME280;19910;42.652;23.332;2024-02-04T04:33:33;94869.78;;;9.74;74.48
23176;BME280;19910;42.652;23.332;2024-02-04T04:36:00;94874.72;;;9.80;74.66
23176;BME280;19910;42.652;23.332;2024-02-04T04:38:26;94884.44;;;9.81;74.98
23176;BME280;19910;42.652;23.332;2024-02-04T04:40:53;94878.38;;;9.84;74.61
23176;BME280;19910;42.652;23.332;2024-02-04T04:43:24;94880.94;;;9.98;74.69
23176;BME280;19910;42.652;23.332;2024-02-04T04:45:52;94871.88;;;10.03;74.86
23176;BME280;19910;42.652;23.332;2024-02-04T04:48:19;94880.16;;;10.15;74.85
23176;BME280;19910;42.652;23.332;2024-02-04T04:50:46;94887.16;;;9.98;75.17
23176;BME280;19910;42.652;23.332;2024-02-04T04:53:12;94875.06;;;10.13;74.64
23176;BME280;19910;42.652;23.332;2024-02-04T04:55:39;94885.25;;;10.08;74.25
23176;BME280;19910;42.652;23.332;2024-02-04T04:58:06;94891.63;;;10.12;73.94
23176;BME280;19910;42.652;23.332;2024-02-04T05:00:34;94882.75;;;10.20;73.22
23176;BME280;19910;42.652;23.332;2024-02-04T05:03:01;94890.97;;;10.15;73.39
23176;BME280;19910;42.652;23.332;2024-02-04T05:05:28;94887.16;;;9.98;73.49
23176;BME280;19910;42.652;23.332;2024-02-04T05:07:55;94880.78;;;9.94;73.47
23176;BME280;19910;42.652;23.332;2024-02-04T05:10:22;94875.84;;;9.88;73.38
23176;BME280;19910;42.652;23.332;2024-02-04T05:12:49;94878.22;;;9.89;73.12
23176;BME280;19910;42.652;23.332;2024-02-04T05:15:16;94878.22;;;9.89;73.21
23176;BME280;19910;42.652;23.332;2024-02-04T05:17:45;94877.59;;;9.92;73.34
23176;BME280;19910;42.652;23.332;2024-02-04T05:20:11;94885.88;;;9.87;73.13
23176;BME280;19910;42.652;23.332;2024-02-04T05:22:38;94880.13;;;9.80;73.23
23176;BME280;19910;42.652;23.332;2024-02-04T05:25:05;94882.66;;;9.85;73.14
23176;BME280;19910;42.652;23.332;2024-02-04T05:27:33;94883.63;;;9.89;72.89
23176;BME280;19910;42.652;23.332;2024-02-04T05:30:02;94883.31;;;9.99;72.41
23176;BME280;19910;42.652;23.332;2024-02-04T05:32:29;94885.25;;;9.90;72.40
23176;BME280;19910;42.652;23.332;2024-02-04T05:34:57;94876.81;;;10.01;72.27
23176;BME280;19910;42.652;23.332;2024-02-04T05:37:27;94890.84;;;10.11;71.82
23176;BME280;19910;42.652;23.332;2024-02-04T05:39:54;94886.19;;;10.12;71.35
23176;BME280;19910;42.652;23.332;2024-02-04T05:42:20;94878.41;;;10.02;71.49
23176;BME280;19910;42.652;23.332;2024-02-04T05:44:50;94881.44;;;10.09;71.34
23176;BME280;19910;42.652;23.332;2024-02-04T05:47:17;94898.94;;;10.03;71.21
23176;BME280;19910;42.652;23.332;2024-02-04T05:49:44;94891.44;;;9.99;71.38
23176;BME280;19910;42.652;23.332;2024-02-04T05:52:12;94890.19;;;9.97;71.08
23176;BME280;19910;42.652;23.332;2024-02-04T05:54:41;94902.13;;;10.05;70.71
23176;BME280;19910;42.652;23.332;2024-02-04T05:57:08;94907.53;;;10.05;70.67
23176;BME280;19910;42.652;23.332;2024-02-04T05:59:36;94901.97;;;9.92;70.95
23176;BME280;19910;42.652;23.332;2024-02-04T06:02:04;94902.44;;;9.94;70.75
23176;BME280;19910;42.652;23.332;2024-02-04T06:04:33;94903.38;;;9.98;70.15
23176;BME280;19910;42.652;23.332;2024-02-04T06:07:02;94914.69;;;10.01;70.61
23176;BME280;19910;42.652;23.332;2024-02-04T06:09:33;94915.50;;;9.92;70.84
23176;BME280;19910;42.652;23.332;2024-02-04T06:12:00;94923.13;;;9.99;70.83
23176;BME280;19910;42.652;23.332;2024-02-04T06:14:33;94926.19;;;10.06;70.55
23176;BME280;19910;42.652;23.332;2024-02-04T06:16:59;94913.13;;;10.08;71.15
23176;BME280;19910;42.652;23.332;2024-02-04T06:19:26;94932.03;;;9.99;71.01
23176;BME280;19910;42.652;23.332;2024-02-04T06:21:53;94922.50;;;9.93;71.10
23176;BME280;19910;42.652;23.332;2024-02-04T06:24:20;94933.63;;;10.01;71.28
23176;BME280;19910;42.652;23.332;2024-02-04T06:26:48;94943.53;;;9.96;70.91
23176;BME280;19910;42.652;23.332;2024-02-04T06:29:15;94925.38;;;10.06;70.80
23176;BME280;19910;42.652;23.332;2024-02-04T06:31:44;94939.72;;;9.97;71.18
23176;BME280;19910;42.652;23.332;2024-02-04T06:34:11;94932.88;;;10.09;70.79
23176;BME280;19910;42.652;23.332;2024-02-04T06:36:42;94973.28;;;10.05;70.75
23176;BME280;19910;42.652;23.332;2024-02-04T06:39:09;94947.09;;;10.23;70.83
23176;BME280;19910;42.652;23.332;2024-02-04T06:41:36;94952.03;;;10.38;70.47
23176;BME280;19910;42.652;23.332;2024-02-04T06:44:05;94941.03;;;10.43;70.68
23176;BME280;19910;42.652;23.332;2024-02-04T06:46:33;94938.00;;;10.27;69.97
23176;BME280;19910;42.652;23.332;2024-02-04T06:49:00;94956.97;;;10.36;69.78
23176;BME280;19910;42.652;23.332;2024-02-04T06:51:28;94952.19;;;10.33;69.76
23176;BME280;19910;42.652;23.332;2024-02-04T06:53:54;94938.78;;;10.28;70.06
23176;BME280;19910;42.652;23.332;2024-02-04T06:56:21;94943.25;;;10.41;69.32
23176;BME280;19910;42.652;23.332;2024-02-04T06:58:48;94955.53;;;10.56;69.36
23176;BME280;19910;42.652;23.332;2024-02-04T07:01:16;94956.97;;;10.36;69.89
23176;BME280;19910;42.652;23.332;2024-02-04T07:03:46;94949.47;;;10.33;69.78
23176;BME280;19910;42.652;23.332;2024-02-04T07:06:13;94955.22;;;10.31;69.49
23176;BME280;19910;42.652;23.332;2024-02-04T07:08:39;94946.78;;;10.33;69.07
23176;BME280;19910;42.652;23.332;2024-02-04T07:11:06;94949.63;;;10.28;69.32
23176;BME280;19910;42.652;23.332;2024-02-04T07:13:33;94949.00;;;10.48;69.13
23176;BME280;19910;42.652;23.332;2024-02-04T07:16:00;94948.50;;;10.20;69.73
23176;BME280;19910;42.652;23.332;2024-02-04T07:18:28;94948.84;;;10.36;69.70
23176;BME280;19910;42.652;23.332;2024-02-04T07:20:55;94949.97;;;10.35;69.50
23176;BME280;19910;42.652;23.332;2024-02-04T07:23:22;94952.50;;;10.23;69.48
23176;BME280;19910;42.652;23.332;2024-02-04T07:25:48;94957.78;;;10.37;69.02
23176;BME280;19910;42.652;23.332;2024-02-04T07:28:15;94955.69;;;10.25;69.52
23176;BME280;19910;42.652;23.332;2024-02-04T07:30:42;94947.06;;;10.40;68.90
23176;BME280;19910;42.652;23.332;2024-02-04T07:33:09;94930.53;;;10.50;68.99
23176;BME280;19910;42.652;23.332;2024-02-04T07:35:37;94948.03;;;10.44;68.46
23176;BME280;19910;42.652;23.332;2024-02-04T07:38:06;94948.34;;;10.68;67.95
23176;BME280;19910;42.652;23.332;2024-02-04T07:40:33;94945.31;;;10.70;67.64
23176;BME280;19910;42.652;23.332;2024-02-04T07:43:00;94958.25;;;10.73;67.87
23176;BME280;19910;42.652;23.332;2024-02-04T07:45:27;94947.25;;;10.69;67.23
23176;BME280;19910;42.652;23.332;2024-02-04T07:47:54;94938.97;;;10.75;66.59
23176;BME280;19910;42.652;23.332;2024-02-04T07:50:22;94964.91;;;10.67;66.72
23176;BME280;19910;42.652;23.332;2024-02-04T07:52:51;94957.44;;;10.55;66.83
23176;BME280;19910;42.652;23.332;2024-02-04T07:55:18;94968.28;;;10.64;66.99
23176;BME280;19910;42.652;23.332;2024-02-04T07:57:45;94960.44;;;10.80;66.34
23176;BME280;19910;42.652;23.332;2024-02-04T08:00:12;94960.47;;;10.88;65.94
23176;BME280;19910;42.652;23.332;2024-02-04T08:02:40;94963.78;;;10.94;65.09
23176;BME280;19910;42.652;23.332;2024-02-04T08:05:07;94958.53;;;11.06;64.13
23176;BME280;19910;42.652;23.332;2024-02-04T08:07:36;94962.41;;;11.34;63.74
23176;BME280;19910;42.652;23.332;2024-02-04T08:10:05;94958.06;;;11.51;62.90
23176;BME280;19910;42.652;23.332;2024-02-04T08:12:32;94953.31;;;11.48;62.69
23176;BME280;19910;42.652;23.332;2024-02-04T08:15:00;94953.81;;;11.32;63.50
23176;BME280;19910;42.652;23.332;2024-02-04T08:17:27;94949.31;;;11.45;62.71
23176;BME280;19910;42.652;23.332;2024-02-04T08:19:56;94952.47;;;11.56;61.46
23176;BME280;19910;42.652;23.332;2024-02-04T08:22:23;94959.97;;;11.59;61.87
23176;BME280;19910;42.652;23.332;2024-02-04T08:24:51;94971.16;;;11.49;62.18
23176;BME280;19910;42.652;23.332;2024-02-04T08:27:20;94959.59;;;11.69;61.41
23176;BME280;19910;42.652;23.332;2024-02-04T08:29:49;94945.81;;;12.12;60.16
23176;BME280;19910;42.652;23.332;2024-02-04T08:32:16;94952.59;;;12.27;59.64
23176;BME280;19910;42.652;23.332;2024-02-04T08:34:43;94942.19;;;12.29;59.23
23176;BME280;19910;42.652;23.332;2024-02-04T08:37:12;94950.53;;;11.94;59.80
23176;BME280;19910;42.652;23.332;2024-02-04T08:39:42;94963.56;;;12.09;60.08
23176;BME280;19910;42.652;23.332;2024-02-04T08:42:11;94954.38;;;11.93;60.42
23176;BME280;19910;42.652;23.332;2024-02-04T08:44:42;94946.41;;;12.18;59.09
23176;BME280;19910;42.652;23.332;2024-02-04T08:47:12;94944.56;;;11.80;59.25
23176;BME280;19910;42.652;23.332;2024-02-04T08:49:44;94940.06;;;11.84;59.72
23176;BME280;19910;42.652;23.332;2024-02-04T08:52:11;94958.94;;;11.72;60.09
23176;BME280;19910;42.652;23.332;2024-02-04T08:54:41;94953.72;;;11.96;59.63
23176;BME280;19910;42.652;23.332;2024-02-04T08:57:10;94949.97;;;11.80;60.73
23176;BME280;19910;42.652;23.332;2024-02-04T08:59:41;94949.75;;;11.94;59.94
23176;BME280;19910;42.652;23.332;2024-02-04T09:02:15;94961.75;;;11.46;61.91
23176;BME280;19910;42.652;23.332;2024-02-04T09:04:45;94925.91;;;11.70;61.21
23176;BME280;19910;42.652;23.332;2024-02-04T09:07:15;94947.13;;;11.68;61.95
23176;BME280;19910;42.652;23.332;2024-02-04T09:09:42;94948.00;;;11.89;61.02
23176;BME280;19910;42.652;23.332;2024-02-04T09:12:09;94919.09;;;11.93;60.55
23176;BME280;19910;42.652;23.332;2024-02-04T09:14:37;94944.47;;;11.97;60.72
23176;BME280;19910;42.652;23.332;2024-02-04T09:17:08;94940.28;;;11.70;61.42
23176;BME280;19910;42.652;23.332;2024-02-04T09:19:35;94938.41;;;11.54;62.18
23176;BME280;19910;42.652;23.332;2024-02-04T09:22:03;94941.66;;;11.85;61.24
23176;BME280;19910;42.652;23.332;2024-02-04T09:24:32;94939.91;;;11.81;61.76
23176;BME280;19910;42.652;23.332;2024-02-04T09:27:00;94954.22;;;11.98;61.36
23176;BME280;19910;42.652;23.332;2024-02-04T09:29:29;94959.81;;;11.93;61.35
23176;BME280;19910;42.652;23.332;2024-02-04T09:31:57;94980.81;;;12.14;60.94
23176;BME280;19910;42.652;23.332;2024-02-04T09:34:28;94986.13;;;12.01;61.54
23176;BME280;19910;42.652;23.332;2024-02-04T09:36:56;94982.84;;;11.87;62.42
23176;BME280;19910;42.652;23.332;2024-02-04T09:39:23;94982.25;;;11.73;62.86
23176;BME280;19910;42.652;23.332;2024-02-04T09:41:54;94972.53;;;11.63;63.02
23176;BME280;19910;42.652;23.332;2024-02-04T09:44:22;94967.56;;;11.74;63.29
23176;BME280;19910;42.652;23.332;2024-02-04T09:46:49;94969.88;;;11.93;62.79
23176;BME280;19910;42.652;23.332;2024-02-04T09:49:18;94967.47;;;12.00;62.47
23176;BME280;19910;42.652;23.332;2024-02-04T09:51:49;94959.06;;;12.14;62.24
23176;BME280;19910;42.652;23.332;2024-02-04T09:54:16;94969.63;;;11.77;62.87
23176;BME280;19910;42.652;23.332;2024-02-04T09:56:45;94972.69;;;11.67;63.34
23176;BME280;19910;42.652;23.332;2024-02-04T09:59:16;94970.28;;;11.65;63.96
23176;BME280;19910;42.652;23.332;2024-02-04T10:01:44;94947.19;;;11.97;63.09
23176;BME280;19910;42.652;23.332;2024-02-04T10:04:11;94958.50;;;11.99;62.93
23176;BME280;19910;42.652;23.332;2024-02-04T10:06:40;94952.13;;;11.57;64.33
23176;BME280;19910;42.652;23.332;2024-02-04T10:09:08;94963.16;;;11.61;63.72
23176;BME280;19910;42.652;23.332;2024-02-04T10:11:38;94965.19;;;11.64;64.20
23176;BME280;19910;42.652;23.332;2024-02-04T10:14:07;94967.91;;;11.64;64.73
23176;BME280;19910;42.652;23.332;2024-02-04T10:16:35;94965.16;;;11.81;64.05
23176;BME280;19910;42.652;23.332;2024-02-04T10:19:02;94950.25;;;12.17;63.51
23176;BME280;19910;42.652;23.332;2024-02-04T10:21:29;94958.44;;;12.08;64.27
23176;BME280;19910;42.652;23.332;2024-02-04T10:24:00;94977.31;;;12.04;65.12
23176;BME280;19910;42.652;23.332;2024-02-04T10:26:29;94975.63;;;11.91;65.49
23176;BME280;19910;42.652;23.332;2024-02-04T10:29:00;94955.88;;;12.12;64.87
23176;BME280;19910;42.652;23.332;2024-02-04T10:31:26;94973.28;;;12.40;64.07
23176;BME280;19910;42.652;23.332;2024-02-04T10:33:56;94963.59;;;12.51;63.75
23176;BME280;19910;42.652;23.332;2024-02-04T10:36:24;94960.94;;;12.22;64.65
23176;BME280;19910;42.652;23.332;2024-02-04T10:38:51;94966.44;;;12.04;65.13
23176;BME280;19910;42.652;23.332;2024-02-04T10:41:18;94951.66;;;12.23;65.01
23176;BME280;19910;42.652;23.332;2024-02-04T10:43:50;94967.22;;;12.14;65.04
23176;BME280;19910;42.652;23.332;2024-02-04T10:46:22;94961.09;;;12.17;65.27
23176;BME280;19910;42.652;23.332;2024-02-04T10:48:55;94969.06;;;11.92;65.71
23176;BME280;19910;42.652;23.332;2024-02-04T10:51:25;94948.47;;;11.91;66.25
23176;BME280;19910;42.652;23.332;2024-02-04T10:53:54;94963.28;;;12.02;66.02
23176;BME280;19910;42.652;23.332;2024-02-04T10:56:26;94946.78;;;12.07;65.60
23176;BME280;19910;42.652;23.332;2024-02-04T10:58:56;94962.28;;;12.07;65.60
23176;BME280;19910;42.652;23.332;2024-02-04T11:01:26;94952.69;;;12.09;65.61
23176;BME280;19910;42.652;23.332;2024-02-04T11:03:53;94960.38;;;12.07;65.41
23176;BME280;19910;42.652;23.332;2024-02-04T11:06:22;94945.66;;;12.08;65.35
23176;BME280;19910;42.652;23.332;2024-02-04T11:08:55;94946.47;;;12.09;65.34
23176;BME280;19910;42.652;23.332;2024-02-04T11:11:26;94944.81;;;12.17;65.51
23176;BME280;19910;42.652;23.332;2024-02-04T11:13:56;94933.13;;;12.25;64.81
23176;BME280;19910;42.652;23.332;2024-02-04T11:16:46;94938.66;;;12.07;65.23
23176;BME280;19910;42.652;23.332;2024-02-04T11:19:26;94938.16;;;12.14;65.07
23176;BME280;19910;42.652;23.332;2024-02-04T11:22:17;94929.34;;;12.38;64.49
23176;BME280;19910;42.652;23.332;2024-02-04T11:25:18;94928.47;;;12.25;64.28
23176;BME280;19910;42.652;23.332;2024-02-04T11:27:46;94911.25;;;12.42;64.62
23176;BME280;19910;42.652;23.332;2024-02-04T11:30:15;94898.53;;;12.34;64.29
23176;BME280;19910;42.652;23.332;2024-02-04T11:32:44;94919.84;;;12.02;65.27
23176;BME280;19910;42.652;23.332;2024-02-04T11:35:16;94910.84;;;12.10;64.83
23176;BME280;19910;42.652;23.332;2024-02-04T11:37:43;94925.81;;;12.17;65.15
23176;BME280;19910;42.652;23.332;2024-02-04T11:40:14;94912.84;;;12.43;64.02
23176;BME280;19910;42.652;23.332;2024-02-04T11:42:44;94913.09;;;12.50;64.07
23176;BME280;19910;42.652;23.332;2024-02-04T11:45:12;94913.63;;;12.64;63.65
23176;BME280;19910;42.652;23.332;2024-02-04T11:47:41;94916.41;;;12.56;63.68
23176;BME280;19910;42.652;23.332;2024-02-04T11:50:09;94898.28;;;12.27;63.80
23176;BME280;19910;42.652;23.332;2024-02-04T11:52:36;94897.25;;;12.10;64.41
23176;BME280;19910;42.652;23.332;2024-02-04T11:55:03;94875.47;;;12.40;64.45
23176;BME280;19910;42.652;23.332;2024-02-04T11:57:32;94869.25;;;12.19;64.67
23176;BME280;19910;42.652;23.332;2024-02-04T12:00:00;94871.63;;;12.41;63.99
23176;BME280;19910;42.652;23.332;2024-02-04T12:02:31;94856.34;;;12.69;62.93
23176;BME280;19910;42.652;23.332;2024-02-04T12:05:01;94850.13;;;12.48;63.24
23176;BME280;19910;42.652;23.332;2024-02-04T12:07:28;94856.84;;;12.84;62.73
23176;BME280;19910;42.652;23.332;2024-02-04T12:09:55;94867.28;;;12.94;61.93
23176;BME280;19910;42.652;23.332;2024-02-04T12:12:23;94865.19;;;12.78;61.82
23176;BME280;19910;42.652;23.332;2024-02-04T12:14:52;94866.91;;;12.83;62.27
23176;BME280;19910;42.652;23.332;2024-02-04T12:17:19;94872.06;;;13.09;61.26
23176;BME280;19910;42.652;23.332;2024-02-04T12:19:50;94871.63;;;13.07;61.64
23176;BME280;19910;42.652;23.332;2024-02-04T12:22:19;94872.97;;;13.13;60.65
23176;BME280;19910;42.652;23.332;2024-02-04T12:24:45;94863.50;;;13.19;60.96
23176;BME280;19910;42.652;23.332;2024-02-04T12:27:15;94854.56;;;13.43;60.08
23176;BME280;19910;42.652;23.332;2024-02-04T12:29:43;94857.13;;;13.15;60.66
23176;BME280;19910;42.652;23.332;2024-02-04T12:32:13;94859.22;;;13.30;59.66
23176;BME280;19910;42.652;23.332;2024-02-04T12:34:46;94861.13;;;13.18;60.72
23176;BME280;19910;42.652;23.332;2024-02-04T12:37:13;94860.06;;;13.10;60.85
23176;BME280;19910;42.652;23.332;2024-02-04T12:39:43;94852.63;;;13.19;60.42
23176;BME280;19910;42.652;23.332;2024-02-04T12:42:14;94863.97;;;13.45;59.52
23176;BME280;19910;42.652;23.332;2024-02-04T12:44:44;94852.44;;;13.03;59.69
23176;BME280;19910;42.652;23.332;2024-02-04T12:47:11;94849.84;;;12.62;60.29
23176;BME280;19910;42.652;23.332;2024-02-04T12:49:38;94855.44;;;12.44;60.85
23176;BME280;19910;42.652;23.332;2024-02-04T12:52:06;94863.00;;;12.39;61.15
23176;BME280;19910;42.652;23.332;2024-02-04T12:54:40;94866.66;;;12.43;61.21
23176;BME280;19910;42.652;23.332;2024-02-04T12:57:21;94861.00;;;12.48;61.64
23176;BME280;19910;42.652;23.332;2024-02-04T12:59:48;94863.44;;;12.29;61.79
23176;BME280;19910;42.652;23.332;2024-02-04T13:02:15;94861.03;;;12.06;62.23